aviador You're here:

KDCM Decoded Metar

in _UNIDENTIFIED
Report Time2018-05-25 20:35:00
UTC Time2018-05-25 20:49:18
Flight Rules vfr VFR
WindCalm
Visibility9999 m
Phenomena:N/A
Clouds:Scattered 016 Hf
Scattered 024 Hf
Scattered 120 Hf
Expected CloudBase > 1,600 ft AGL from Temp-Dew spread
CeilingNone
Temp25°C (ISA +11)
Dew Point21°C (79% RH)
QNH1017 hPa
Density Alt2,159 ft
Elevation656 ft
Report Wrong Elevation
Raw Report
METAR KDCM 252035Z AUTO 00000KT 7SM SCT016 SCT024 SCT120 25/21 A3003
RMK AO2 LTG DSNT SE AND SW=

Extra information for KDCM:More info

Metar Taf Metar & Taf Last 4 Metars F.Rules Stats Wind Profile Meteogram Temp Stats Metar ALERT Operation Metar Decoded Social comments